KGUS/GUS METAR and TAF weather

Enter ICAO airport designator
Station Type Date Time Source
KGUS METAR 2022/01/29 00:56 UTC NOAA

KGUS 290056Z AUTO 33003KT 10SM CLR M13/M18 A3028 RMK AO2 SLP273 T11261182 $


Station Type Date Time Source
KGUS Decoded METAR 2022/01/29 00:56 UTC NOAA

Grissom Air Force Base / Peru, IN, United States (KGUS) 40-39N 086-09W
Jan 28, 2022 - 07:56 PM EST / 2022.01.29 0056 UTC
Wind: from the NNW (330 degrees) at 3 MPH (3 KT):0
Visibility: 10 mile(s):0
Sky conditions: clear
Temperature: 9.3 F (-12.6 C)
Dew Point: -0.8 F (-18.2 C)
Relative Humidity: 62%
Pressure (altimeter): 30.28 in. Hg (1025 hPa)
ob: KGUS 290056Z AUTO 33003KT 10SM CLR M13/M18 A3028 RMK AO2 SLP273 T11261182
cycle: 1

Station Type Date Time Source
KGUS TAF 2022/01/28 21:16 UTC NOAA

TAF KGUS 282107Z 2821/3003 36010G20KT 9999 FEW150 SCT200 QNH3020INS
BECMG 2823/2824 34008KT 9999 FEW015 SCT080 SCT200 QNH3025INS
BECMG 2908/2909 VRB06KT 9999 BKN015 OVC025 620156 QNH3023INS
BECMG 2916/2917 23009KT 9999 SKC QNH3017INS
BECMG 2920/2921 23012G20KT 9999 SKC QNH2997INS TXM04/2920Z TNM12/2905Z

Example: see airport list